sensor_id;sensor_type;location;lat;lon;timestamp;P1;durP1;ratioP1;P2;durP2;ratioP2
80621;SDS011;69980;51.914;7.526;2024-03-08T00:01:43;18.58;;;14.15;;
80621;SDS011;69980;51.914;7.526;2024-03-08T00:04:08;20.85;;;14.10;;
80621;SDS011;69980;51.914;7.526;2024-03-08T00:06:34;18.77;;;14.27;;
80621;SDS011;69980;51.914;7.526;2024-03-08T00:08:59;19.67;;;14.18;;
80621;SDS011;69980;51.914;7.526;2024-03-08T00:11:24;19.65;;;14.30;;
80621;SDS011;69980;51.914;7.526;2024-03-08T00:13:50;20.00;;;14.80;;
80621;SDS011;69980;51.914;7.526;2024-03-08T00:16:15;20.85;;;15.07;;
80621;SDS011;69980;51.914;7.526;2024-03-08T00:18:40;20.15;;;14.00;;
80621;SDS011;69980;51.914;7.526;2024-03-08T00:21:05;22.23;;;15.30;;
80621;SDS011;69980;51.914;7.526;2024-03-08T00:23:31;21.17;;;14.82;;
80621;SDS011;69980;51.914;7.526;2024-03-08T00:25:56;19.23;;;14.63;;
80621;SDS011;69980;51.914;7.526;2024-03-08T00:28:21;23.73;;;16.08;;
80621;SDS011;69980;51.914;7.526;2024-03-08T00:30:47;20.73;;;14.93;;
80621;SDS011;69980;51.914;7.526;2024-03-08T00:33:12;21.70;;;15.30;;
80621;SDS011;69980;51.914;7.526;2024-03-08T00:35:37;20.00;;;14.65;;
80621;SDS011;69980;51.914;7.526;2024-03-08T00:38:02;22.77;;;15.50;;
80621;SDS011;69980;51.914;7.526;2024-03-08T00:40:28;20.08;;;15.18;;
80621;SDS011;69980;51.914;7.526;2024-03-08T00:42:53;18.75;;;14.50;;
80621;SDS011;69980;51.914;7.526;2024-03-08T00:45:18;22.52;;;15.60;;
80621;SDS011;69980;51.914;7.526;2024-03-08T00:47:44;21.08;;;15.43;;
80621;SDS011;69980;51.914;7.526;2024-03-08T00:50:09;21.42;;;15.60;;
80621;SDS011;69980;51.914;7.526;2024-03-08T00:52:35;21.52;;;16.25;;
80621;SDS011;69980;51.914;7.526;2024-03-08T00:55:01;21.92;;;15.05;;
80621;SDS011;69980;51.914;7.526;2024-03-08T00:57:26;22.45;;;16.48;;
80621;SDS011;69980;51.914;7.526;2024-03-08T00:59:52;22.58;;;16.60;;
80621;SDS011;69980;51.914;7.526;2024-03-08T01:02:17;21.73;;;15.77;;
80621;SDS011;69980;51.914;7.526;2024-03-08T01:04:42;22.80;;;15.98;;
80621;SDS011;69980;51.914;7.526;2024-03-08T01:07:08;22.88;;;16.05;;
80621;SDS011;69980;51.914;7.526;2024-03-08T01:09:33;23.92;;;16.35;;
80621;SDS011;69980;51.914;7.526;2024-03-08T01:11:58;21.40;;;15.85;;
80621;SDS011;69980;51.914;7.526;2024-03-08T01:14:24;23.27;;;15.60;;
80621;SDS011;69980;51.914;7.526;2024-03-08T01:16:49;22.38;;;15.50;;
80621;SDS011;69980;51.914;7.526;2024-03-08T01:19:15;22.65;;;16.25;;
80621;SDS011;69980;51.914;7.526;2024-03-08T01:21:41;21.40;;;15.25;;
80621;SDS011;69980;51.914;7.526;2024-03-08T01:24:06;20.35;;;15.80;;
80621;SDS011;69980;51.914;7.526;2024-03-08T01:26:32;21.13;;;15.38;;
80621;SDS011;69980;51.914;7.526;2024-03-08T01:28:57;21.23;;;16.23;;
80621;SDS011;69980;51.914;7.526;2024-03-08T01:31:22;26.77;;;17.48;;
80621;SDS011;69980;51.914;7.526;2024-03-08T01:33:47;23.60;;;15.90;;
80621;SDS011;69980;51.914;7.526;2024-03-08T01:36:13;24.15;;;17.10;;
80621;SDS011;69980;51.914;7.526;2024-03-08T01:38:38;21.52;;;15.18;;
80621;SDS011;69980;51.914;7.526;2024-03-08T01:41:04;24.20;;;16.45;;
80621;SDS011;69980;51.914;7.526;2024-03-08T01:43:29;24.90;;;16.25;;
80621;SDS011;69980;51.914;7.526;2024-03-08T01:45:55;24.05;;;16.55;;
80621;SDS011;69980;51.914;7.526;2024-03-08T01:48:20;21.75;;;15.18;;
80621;SDS011;69980;51.914;7.526;2024-03-08T01:50:46;23.98;;;17.15;;
80621;SDS011;69980;51.914;7.526;2024-03-08T01:53:11;25.23;;;17.30;;
80621;SDS011;69980;51.914;7.526;2024-03-08T01:55:37;22.58;;;16.42;;
80621;SDS011;69980;51.914;7.526;2024-03-08T01:58:04;26.88;;;16.85;;
80621;SDS011;69980;51.914;7.526;2024-03-08T02:00:30;24.65;;;17.50;;
80621;SDS011;69980;51.914;7.526;2024-03-08T02:02:57;22.92;;;17.20;;
80621;SDS011;69980;51.914;7.526;2024-03-08T02:05:22;23.75;;;16.23;;
80621;SDS011;69980;51.914;7.526;2024-03-08T02:07:48;23.45;;;16.00;;
80621;SDS011;69980;51.914;7.526;2024-03-08T02:10:13;23.38;;;16.02;;
80621;SDS011;69980;51.914;7.526;2024-03-08T02:12:38;24.38;;;17.55;;
80621;SDS011;69980;51.914;7.526;2024-03-08T02:15:04;24.75;;;16.80;;
80621;SDS011;69980;51.914;7.526;2024-03-08T02:17:29;26.40;;;16.98;;
80621;SDS011;69980;51.914;7.526;2024-03-08T02:19:55;28.92;;;18.17;;
80621;SDS011;69980;51.914;7.526;2024-03-08T02:22:20;22.70;;;16.67;;
80621;SDS011;69980;51.914;7.526;2024-03-08T02:24:45;23.63;;;17.25;;
80621;SDS011;69980;51.914;7.526;2024-03-08T02:27:11;24.50;;;16.88;;
80621;SDS011;69980;51.914;7.526;2024-03-08T02:29:36;24.10;;;16.67;;
80621;SDS011;69980;51.914;7.526;2024-03-08T02:32:01;25.92;;;17.75;;
80621;SDS011;69980;51.914;7.526;2024-03-08T02:34:27;25.45;;;17.83;;
80621;SDS011;69980;51.914;7.526;2024-03-08T02:36:52;23.92;;;17.92;;
80621;SDS011;69980;51.914;7.526;2024-03-08T02:39:17;23.45;;;17.02;;
80621;SDS011;69980;51.914;7.526;2024-03-08T02:41:43;23.58;;;17.30;;
80621;SDS011;69980;51.914;7.526;2024-03-08T02:44:10;24.55;;;16.65;;
80621;SDS011;69980;51.914;7.526;2024-03-08T02:46:35;22.58;;;17.05;;
80621;SDS011;69980;51.914;7.526;2024-03-08T02:49:01;24.95;;;16.80;;
80621;SDS011;69980;51.914;7.526;2024-03-08T02:51:26;22.75;;;16.65;;
80621;SDS011;69980;51.914;7.526;2024-03-08T02:53:51;26.35;;;18.25;;
80621;SDS011;69980;51.914;7.526;2024-03-08T02:56:17;26.05;;;18.45;;
80621;SDS011;69980;51.914;7.526;2024-03-08T02:58:42;24.58;;;18.83;;
80621;SDS011;69980;51.914;7.526;2024-03-08T03:01:08;24.55;;;17.58;;
80621;SDS011;69980;51.914;7.526;2024-03-08T03:03:34;26.15;;;18.45;;
80621;SDS011;69980;51.914;7.526;2024-03-08T03:05:59;26.63;;;18.08;;
80621;SDS011;69980;51.914;7.526;2024-03-08T03:08:24;26.73;;;18.58;;
80621;SDS011;69980;51.914;7.526;2024-03-08T03:10:49;25.88;;;17.83;;
80621;SDS011;69980;51.914;7.526;2024-03-08T03:13:15;26.20;;;17.88;;
80621;SDS011;69980;51.914;7.526;2024-03-08T03:15:40;23.98;;;17.13;;
80621;SDS011;69980;51.914;7.526;2024-03-08T03:18:05;24.80;;;16.67;;
80621;SDS011;69980;51.914;7.526;2024-03-08T03:20:31;24.50;;;17.17;;
80621;SDS011;69980;51.914;7.526;2024-03-08T03:22:56;24.75;;;17.45;;
80621;SDS011;69980;51.914;7.526;2024-03-08T03:25:21;26.33;;;17.65;;
80621;SDS011;69980;51.914;7.526;2024-03-08T03:27:47;23.70;;;17.13;;
80621;SDS011;69980;51.914;7.526;2024-03-08T03:30:12;27.08;;;18.95;;
80621;SDS011;69980;51.914;7.526;2024-03-08T03:32:38;25.73;;;18.27;;
80621;SDS011;69980;51.914;7.526;2024-03-08T03:35:03;28.45;;;18.70;;
80621;SDS011;69980;51.914;7.526;2024-03-08T03:37:28;27.02;;;19.58;;
80621;SDS011;69980;51.914;7.526;2024-03-08T03:39:54;26.60;;;18.33;;
80621;SDS011;69980;51.914;7.526;2024-03-08T03:42:19;26.90;;;18.52;;
80621;SDS011;69980;51.914;7.526;2024-03-08T03:44:48;25.75;;;18.38;;
80621;SDS011;69980;51.914;7.526;2024-03-08T03:47:13;28.48;;;19.55;;
80621;SDS011;69980;51.914;7.526;2024-03-08T03:49:39;27.63;;;18.58;;
80621;SDS011;69980;51.914;7.526;2024-03-08T03:52:04;26.88;;;19.02;;
80621;SDS011;69980;51.914;7.526;2024-03-08T03:54:30;28.17;;;19.33;;
80621;SDS011;69980;51.914;7.526;2024-03-08T03:56:55;27.77;;;19.42;;
80621;SDS011;69980;51.914;7.526;2024-03-08T03:59:21;27.23;;;17.65;;
80621;SDS011;69980;51.914;7.526;2024-03-08T04:01:46;28.02;;;19.75;;
80621;SDS011;69980;51.914;7.526;2024-03-08T04:04:11;26.92;;;18.33;;
80621;SDS011;69980;51.914;7.526;2024-03-08T04:06:37;27.08;;;18.88;;
80621;SDS011;69980;51.914;7.526;2024-03-08T04:09:02;29.10;;;18.88;;
80621;SDS011;69980;51.914;7.526;2024-03-08T04:11:27;26.10;;;18.85;;
80621;SDS011;69980;51.914;7.526;2024-03-08T04:13:52;27.20;;;18.30;;
80621;SDS011;69980;51.914;7.526;2024-03-08T04:16:18;26.27;;;18.17;;
80621;SDS011;69980;51.914;7.526;2024-03-08T04:18:43;27.33;;;19.10;;
80621;SDS011;69980;51.914;7.526;2024-03-08T04:21:08;31.48;;;19.80;;
80621;SDS011;69980;51.914;7.526;2024-03-08T04:23:34;28.58;;;19.45;;
80621;SDS011;69980;51.914;7.526;2024-03-08T04:25:59;26.65;;;18.80;;
80621;SDS011;69980;51.914;7.526;2024-03-08T04:28:24;25.73;;;18.90;;
80621;SDS011;69980;51.914;7.526;2024-03-08T04:30:50;28.58;;;19.20;;
80621;SDS011;69980;51.914;7.526;2024-03-08T04:33:15;28.90;;;19.17;;
80621;SDS011;69980;51.914;7.526;2024-03-08T04:35:40;26.83;;;18.02;;
80621;SDS011;69980;51.914;7.526;2024-03-08T04:38:06;27.27;;;19.05;;
80621;SDS011;69980;51.914;7.526;2024-03-08T04:40:31;28.88;;;18.85;;
80621;SDS011;69980;51.914;7.526;2024-03-08T04:42:56;27.65;;;19.52;;
80621;SDS011;69980;51.914;7.526;2024-03-08T04:45:22;27.48;;;19.50;;
80621;SDS011;69980;51.914;7.526;2024-03-08T04:47:48;29.30;;;19.95;;
80621;SDS011;69980;51.914;7.526;2024-03-08T04:50:13;30.08;;;19.08;;
80621;SDS011;69980;51.914;7.526;2024-03-08T04:52:38;29.02;;;20.13;;
80621;SDS011;69980;51.914;7.526;2024-03-08T04:55:04;28.35;;;19.17;;
80621;SDS011;69980;51.914;7.526;2024-03-08T04:57:29;25.63;;;18.52;;
80621;SDS011;69980;51.914;7.526;2024-03-08T04:59:55;32.88;;;19.92;;
80621;SDS011;69980;51.914;7.526;2024-03-08T05:02:20;28.52;;;19.67;;
80621;SDS011;69980;51.914;7.526;2024-03-08T05:04:45;25.88;;;18.65;;
80621;SDS011;69980;51.914;7.526;2024-03-08T05:07:11;28.77;;;19.48;;
80621;SDS011;69980;51.914;7.526;2024-03-08T05:09:36;29.23;;;19.38;;
80621;SDS011;69980;51.914;7.526;2024-03-08T05:12:01;28.58;;;19.13;;
80621;SDS011;69980;51.914;7.526;2024-03-08T05:14:27;28.88;;;18.98;;
80621;SDS011;69980;51.914;7.526;2024-03-08T05:16:52;27.70;;;18.35;;
80621;SDS011;69980;51.914;7.526;2024-03-08T05:19:18;27.30;;;17.88;;
80621;SDS011;69980;51.914;7.526;2024-03-08T05:21:48;26.40;;;18.20;;
80621;SDS011;69980;51.914;7.526;2024-03-08T05:24:14;29.27;;;18.85;;
80621;SDS011;69980;51.914;7.526;2024-03-08T05:26:39;29.80;;;19.70;;
80621;SDS011;69980;51.914;7.526;2024-03-08T05:29:05;28.45;;;19.73;;
80621;SDS011;69980;51.914;7.526;2024-03-08T05:31:36;27.55;;;19.85;;
80621;SDS011;69980;51.914;7.526;2024-03-08T05:34:04;31.23;;;20.65;;
80621;SDS011;69980;51.914;7.526;2024-03-08T05:36:29;30.45;;;20.10;;
80621;SDS011;69980;51.914;7.526;2024-03-08T05:38:55;28.92;;;19.58;;
80621;SDS011;69980;51.914;7.526;2024-03-08T05:41:20;27.55;;;18.15;;
80621;SDS011;69980;51.914;7.526;2024-03-08T05:43:45;28.70;;;21.15;;
80621;SDS011;69980;51.914;7.526;2024-03-08T05:46:11;32.17;;;20.92;;
80621;SDS011;69980;51.914;7.526;2024-03-08T05:48:36;31.23;;;19.65;;
80621;SDS011;69980;51.914;7.526;2024-03-08T05:51:01;31.95;;;20.35;;
80621;SDS011;69980;51.914;7.526;2024-03-08T05:53:26;29.88;;;20.05;;
80621;SDS011;69980;51.914;7.526;2024-03-08T05:55:52;30.23;;;20.55;;
80621;SDS011;69980;51.914;7.526;2024-03-08T05:58:17;32.03;;;21.65;;
80621;SDS011;69980;51.914;7.526;2024-03-08T06:00:42;29.85;;;18.95;;
80621;SDS011;69980;51.914;7.526;2024-03-08T06:03:08;30.10;;;19.85;;
80621;SDS011;69980;51.914;7.526;2024-03-08T06:05:33;28.60;;;19.67;;
80621;SDS011;69980;51.914;7.526;2024-03-08T06:07:58;29.27;;;20.15;;
80621;SDS011;69980;51.914;7.526;2024-03-08T06:10:24;30.10;;;19.90;;
80621;SDS011;69980;51.914;7.526;2024-03-08T06:12:49;28.35;;;20.42;;
80621;SDS011;69980;51.914;7.526;2024-03-08T06:15:14;32.63;;;20.80;;
80621;SDS011;69980;51.914;7.526;2024-03-08T06:17:40;29.90;;;20.75;;
80621;SDS011;69980;51.914;7.526;2024-03-08T06:20:06;29.33;;;20.15;;
80621;SDS011;69980;51.914;7.526;2024-03-08T06:22:31;28.50;;;19.48;;
80621;SDS011;69980;51.914;7.526;2024-03-08T06:24:57;30.15;;;20.08;;
80621;SDS011;69980;51.914;7.526;2024-03-08T06:27:22;31.80;;;21.48;;
80621;SDS011;69980;51.914;7.526;2024-03-08T06:29:47;30.23;;;21.02;;
80621;SDS011;69980;51.914;7.526;2024-03-08T06:32:16;28.23;;;19.88;;
80621;SDS011;69980;51.914;7.526;2024-03-08T06:34:41;31.95;;;20.23;;
80621;SDS011;69980;51.914;7.526;2024-03-08T06:37:06;31.67;;;21.52;;
80621;SDS011;69980;51.914;7.526;2024-03-08T06:39:31;30.23;;;20.15;;
80621;SDS011;69980;51.914;7.526;2024-03-08T06:41:57;29.88;;;20.08;;
80621;SDS011;69980;51.914;7.526;2024-03-08T06:44:22;28.90;;;19.73;;
80621;SDS011;69980;51.914;7.526;2024-03-08T06:46:48;29.92;;;20.75;;
80621;SDS011;69980;51.914;7.526;2024-03-08T06:49:13;32.03;;;20.52;;
80621;SDS011;69980;51.914;7.526;2024-03-08T06:51:39;30.48;;;20.70;;
80621;SDS011;69980;51.914;7.526;2024-03-08T06:54:04;31.17;;;20.75;;
80621;SDS011;69980;51.914;7.526;2024-03-08T06:56:29;29.00;;;20.98;;
80621;SDS011;69980;51.914;7.526;2024-03-08T06:58:55;29.88;;;20.20;;
80621;SDS011;69980;51.914;7.526;2024-03-08T07:01:20;28.75;;;20.20;;
80621;SDS011;69980;51.914;7.526;2024-03-08T07:03:45;29.50;;;19.67;;
80621;SDS011;69980;51.914;7.526;2024-03-08T07:06:10;27.48;;;21.27;;
80621;SDS011;69980;51.914;7.526;2024-03-08T07:08:36;28.00;;;20.65;;
80621;SDS011;69980;51.914;7.526;2024-03-08T07:11:01;30.65;;;21.20;;
80621;SDS011;69980;51.914;7.526;2024-03-08T07:13:27;26.98;;;19.13;;
80621;SDS011;69980;51.914;7.526;2024-03-08T07:15:52;28.08;;;19.13;;
80621;SDS011;69980;51.914;7.526;2024-03-08T07:18:17;29.40;;;19.77;;
80621;SDS011;69980;51.914;7.526;2024-03-08T07:20:42;28.38;;;19.35;;
80621;SDS011;69980;51.914;7.526;2024-03-08T07:23:08;28.33;;;19.73;;
80621;SDS011;69980;51.914;7.526;2024-03-08T07:25:33;29.70;;;21.02;;
80621;SDS011;69980;51.914;7.526;2024-03-08T07:27:58;29.95;;;21.13;;
80621;SDS011;69980;51.914;7.526;2024-03-08T07:30:24;28.95;;;20.00;;
80621;SDS011;69980;51.914;7.526;2024-03-08T07:32:51;28.05;;;18.77;;
80621;SDS011;69980;51.914;7.526;2024-03-08T07:35:16;28.70;;;19.05;;
80621;SDS011;69980;51.914;7.526;2024-03-08T07:37:41;28.42;;;20.00;;
80621;SDS011;69980;51.914;7.526;2024-03-08T07:40:07;28.58;;;20.40;;
80621;SDS011;69980;51.914;7.526;2024-03-08T07:42:32;31.02;;;20.10;;
80621;SDS011;69980;51.914;7.526;2024-03-08T07:44:58;29.73;;;20.20;;
80621;SDS011;69980;51.914;7.526;2024-03-08T07:47:23;31.00;;;20.10;;
80621;SDS011;69980;51.914;7.526;2024-03-08T07:49:48;31.02;;;20.73;;
80621;SDS011;69980;51.914;7.526;2024-03-08T07:52:13;29.27;;;20.83;;
80621;SDS011;69980;51.914;7.526;2024-03-08T07:54:39;29.13;;;19.90;;
80621;SDS011;69980;51.914;7.526;2024-03-08T07:57:04;28.52;;;19.55;;
80621;SDS011;69980;51.914;7.526;2024-03-08T07:59:29;28.20;;;20.08;;
80621;SDS011;69980;51.914;7.526;2024-03-08T08:01:55;27.42;;;19.50;;
80621;SDS011;69980;51.914;7.526;2024-03-08T08:04:20;28.42;;;20.20;;
80621;SDS011;69980;51.914;7.526;2024-03-08T08:06:45;28.48;;;19.17;;
80621;SDS011;69980;51.914;7.526;2024-03-08T08:09:10;26.00;;;19.17;;
80621;SDS011;69980;51.914;7.526;2024-03-08T08:11:36;31.40;;;20.92;;
80621;SDS011;69980;51.914;7.526;2024-03-08T08:14:01;28.05;;;19.08;;
80621;SDS011;69980;51.914;7.526;2024-03-08T08:16:26;28.63;;;19.52;;
80621;SDS011;69980;51.914;7.526;2024-03-08T08:18:52;26.33;;;19.83;;
80621;SDS011;69980;51.914;7.526;2024-03-08T08:21:17;29.83;;;19.75;;
80621;SDS011;69980;51.914;7.526;2024-03-08T08:23:42;25.55;;;19.45;;
80621;SDS011;69980;51.914;7.526;2024-03-08T08:26:08;26.30;;;19.55;;
80621;SDS011;69980;51.914;7.526;2024-03-08T08:28:33;28.17;;;19.52;;
80621;SDS011;69980;51.914;7.526;2024-03-08T08:30:58;29.08;;;20.05;;
80621;SDS011;69980;51.914;7.526;2024-03-08T08:33:24;26.90;;;19.30;;
80621;SDS011;69980;51.914;7.526;2024-03-08T08:35:49;24.38;;;18.30;;
80621;SDS011;69980;51.914;7.526;2024-03-08T08:38:14;26.67;;;19.63;;
80621;SDS011;69980;51.914;7.526;2024-03-08T08:40:39;26.90;;;19.77;;
80621;SDS011;69980;51.914;7.526;2024-03-08T08:43:05;26.80;;;19.70;;
80621;SDS011;69980;51.914;7.526;2024-03-08T08:45:30;24.63;;;18.05;;
80621;SDS011;69980;51.914;7.526;2024-03-08T08:47:56;27.30;;;19.25;;
80621;SDS011;69980;51.914;7.526;2024-03-08T08:50:21;26.60;;;19.83;;
80621;SDS011;69980;51.914;7.526;2024-03-08T08:52:47;27.00;;;20.15;;
80621;SDS011;69980;51.914;7.526;2024-03-08T08:55:12;26.90;;;19.73;;
80621;SDS011;69980;51.914;7.526;2024-03-08T08:57:37;26.15;;;18.80;;
80621;SDS011;69980;51.914;7.526;2024-03-08T09:00:03;28.02;;;20.35;;
80621;SDS011;69980;51.914;7.526;2024-03-08T09:02:29;26.65;;;18.30;;
80621;SDS011;69980;51.914;7.526;2024-03-08T09:04:54;28.73;;;20.10;;
80621;SDS011;69980;51.914;7.526;2024-03-08T09:07:19;26.48;;;19.10;;
80621;SDS011;69980;51.914;7.526;2024-03-08T09:09:44;27.50;;;20.13;;
80621;SDS011;69980;51.914;7.526;2024-03-08T09:12:10;26.67;;;19.10;;
80621;SDS011;69980;51.914;7.526;2024-03-08T09:14:35;25.65;;;19.98;;
80621;SDS011;69980;51.914;7.526;2024-03-08T09:17:01;28.00;;;20.70;;
80621;SDS011;69980;51.914;7.526;2024-03-08T09:19:26;26.83;;;19.92;;
80621;SDS011;69980;51.914;7.526;2024-03-08T09:21:51;27.30;;;19.45;;
80621;SDS011;69980;51.914;7.526;2024-03-08T09:24:17;27.08;;;20.02;;
80621;SDS011;69980;51.914;7.526;2024-03-08T09:26:42;27.77;;;20.00;;
80621;SDS011;69980;51.914;7.526;2024-03-08T09:29:07;27.05;;;19.20;;
80621;SDS011;69980;51.914;7.526;2024-03-08T09:31:32;26.17;;;19.90;;
80621;SDS011;69980;51.914;7.526;2024-03-08T09:33:58;26.73;;;19.35;;
80621;SDS011;69980;51.914;7.526;2024-03-08T09:36:23;28.27;;;20.02;;
80621;SDS011;69980;51.914;7.526;2024-03-08T09:38:48;25.63;;;19.05;;
80621;SDS011;69980;51.914;7.526;2024-03-08T09:41:14;27.88;;;19.35;;
80621;SDS011;69980;51.914;7.526;2024-03-08T09:43:39;25.85;;;20.02;;
80621;SDS011;69980;51.914;7.526;2024-03-08T09:46:04;26.52;;;19.27;;
80621;SDS011;69980;51.914;7.526;2024-03-08T09:48:30;25.15;;;18.45;;
80621;SDS011;69980;51.914;7.526;2024-03-08T09:50:56;23.80;;;19.63;;
80621;SDS011;69980;51.914;7.526;2024-03-08T09:53:21;25.65;;;19.35;;
80621;SDS011;69980;51.914;7.526;2024-03-08T09:55:47;24.88;;;19.30;;
80621;SDS011;69980;51.914;7.526;2024-03-08T09:58:13;25.67;;;18.52;;
80621;SDS011;69980;51.914;7.526;2024-03-08T10:00:39;24.27;;;19.42;;
80621;SDS011;69980;51.914;7.526;2024-03-08T10:03:05;24.17;;;18.77;;
80621;SDS011;69980;51.914;7.526;2024-03-08T10:05:30;25.45;;;19.10;;
80621;SDS011;69980;51.914;7.526;2024-03-08T10:07:55;24.58;;;19.00;;
80621;SDS011;69980;51.914;7.526;2024-03-08T10:10:21;23.67;;;18.77;;
80621;SDS011;69980;51.914;7.526;2024-03-08T10:12:46;24.35;;;19.95;;
80621;SDS011;69980;51.914;7.526;2024-03-08T10:15:11;24.45;;;18.80;;
80621;SDS011;69980;51.914;7.526;2024-03-08T10:17:37;23.77;;;17.80;;
80621;SDS011;69980;51.914;7.526;2024-03-08T10:20:02;26.48;;;19.42;;
80621;SDS011;69980;51.914;7.526;2024-03-08T10:22:28;21.27;;;17.90;;
80621;SDS011;69980;51.914;7.526;2024-03-08T10:24:53;25.02;;;18.83;;
80621;SDS011;69980;51.914;7.526;2024-03-08T10:27:18;23.80;;;19.70;;
80621;SDS011;69980;51.914;7.526;2024-03-08T10:29:47;22.65;;;17.83;;
80621;SDS011;69980;51.914;7.526;2024-03-08T10:32:13;21.83;;;17.35;;
80621;SDS011;69980;51.914;7.526;2024-03-08T10:34:38;22.60;;;17.60;;
80621;SDS011;69980;51.914;7.526;2024-03-08T10:37:04;22.27;;;17.98;;
80621;SDS011;69980;51.914;7.526;2024-03-08T10:39:32;20.90;;;17.48;;
80621;SDS011;69980;51.914;7.526;2024-03-08T10:42:01;24.27;;;17.92;;
80621;SDS011;69980;51.914;7.526;2024-03-08T10:49:26;21.20;;;17.35;;
80621;SDS011;69980;51.914;7.526;2024-03-08T10:51:56;23.52;;;17.42;;
80621;SDS011;69980;51.914;7.526;2024-03-08T10:54:22;21.63;;;15.93;;
80621;SDS011;69980;51.914;7.526;2024-03-08T10:56:50;19.23;;;16.27;;
80621;SDS011;69980;51.914;7.526;2024-03-08T10:59:16;23.10;;;17.10;;
80621;SDS011;69980;51.914;7.526;2024-03-08T11:01:42;21.75;;;16.67;;
80621;SDS011;69980;51.914;7.526;2024-03-08T11:04:07;24.55;;;16.55;;
80621;SDS011;69980;51.914;7.526;2024-03-08T11:09:01;19.83;;;16.35;;
80621;SDS011;69980;51.914;7.526;2024-03-08T11:11:27;21.40;;;16.75;;
80621;SDS011;69980;51.914;7.526;2024-03-08T11:13:53;19.95;;;16.13;;
80621;SDS011;69980;51.914;7.526;2024-03-08T11:18:52;22.65;;;16.80;;
80621;SDS011;69980;51.914;7.526;2024-03-08T11:21:18;19.73;;;16.70;;
80621;SDS011;69980;51.914;7.526;2024-03-08T11:23:43;19.55;;;16.48;;
80621;SDS011;69980;51.914;7.526;2024-03-08T11:26:33;20.48;;;16.13;;
80621;SDS011;69980;51.914;7.526;2024-03-08T11:32:04;21.77;;;16.33;;
80621;SDS011;69980;51.914;7.526;2024-03-08T11:34:30;18.25;;;15.60;;
80621;SDS011;69980;51.914;7.526;2024-03-08T11:36:56;20.85;;;16.05;;
80621;SDS011;69980;51.914;7.526;2024-03-08T11:39:22;18.20;;;15.07;;
80621;SDS011;69980;51.914;7.526;2024-03-08T11:41:47;19.95;;;16.38;;
80621;SDS011;69980;51.914;7.526;2024-03-08T11:44:13;20.38;;;15.85;;
80621;SDS011;69980;51.914;7.526;2024-03-08T11:46:38;18.52;;;15.35;;
80621;SDS011;69980;51.914;7.526;2024-03-08T11:49:03;18.45;;;15.32;;
80621;SDS011;69980;51.914;7.526;2024-03-08T11:51:29;20.85;;;16.38;;
80621;SDS011;69980;51.914;7.526;2024-03-08T11:53:54;19.67;;;15.45;;
80621;SDS011;69980;51.914;7.526;2024-03-08T11:56:19;20.30;;;15.18;;
80621;SDS011;69980;51.914;7.526;2024-03-08T11:58:54;19.05;;;15.23;;
80621;SDS011;69980;51.914;7.526;2024-03-08T12:01:20;18.00;;;14.63;;
80621;SDS011;69980;51.914;7.526;2024-03-08T12:03:45;18.70;;;14.13;;
80621;SDS011;69980;51.914;7.526;2024-03-08T12:06:26;17.45;;;14.07;;
80621;SDS011;69980;51.914;7.526;2024-03-08T12:08:52;18.98;;;15.00;;
80621;SDS011;69980;51.914;7.526;2024-03-08T12:11:17;16.98;;;14.15;;
80621;SDS011;69980;51.914;7.526;2024-03-08T12:13:43;17.27;;;14.07;;
80621;SDS011;69980;51.914;7.526;2024-03-08T12:16:08;16.55;;;13.80;;
80621;SDS011;69980;51.914;7.526;2024-03-08T12:18:34;15.80;;;14.07;;
80621;SDS011;69980;51.914;7.526;2024-03-08T12:23:30;18.45;;;13.80;;
80621;SDS011;69980;51.914;7.526;2024-03-08T12:25:55;17.17;;;14.40;;
80621;SDS011;69980;51.914;7.526;2024-03-08T12:28:20;18.67;;;15.10;;
80621;SDS011;69980;51.914;7.526;2024-03-08T12:30:49;17.83;;;14.10;;
80621;SDS011;69980;51.914;7.526;2024-03-08T12:33:15;17.20;;;14.55;;
80621;SDS011;69980;51.914;7.526;2024-03-08T12:35:40;17.42;;;14.32;;
80621;SDS011;69980;51.914;7.526;2024-03-08T12:38:06;15.85;;;13.32;;
80621;SDS011;69980;51.914;7.526;2024-03-08T12:40:31;16.58;;;13.65;;
80621;SDS011;69980;51.914;7.526;2024-03-08T12:42:58;17.40;;;14.48;;
80621;SDS011;69980;51.914;7.526;2024-03-08T12:45:24;18.73;;;14.82;;
80621;SDS011;69980;51.914;7.526;2024-03-08T12:47:53;16.65;;;14.18;;
80621;SDS011;69980;51.914;7.526;2024-03-08T12:50:22;17.95;;;13.32;;
80621;SDS011;69980;51.914;7.526;2024-03-08T12:52:48;18.13;;;13.90;;
80621;SDS011;69980;51.914;7.526;2024-03-08T12:55:14;17.00;;;14.27;;
80621;SDS011;69980;51.914;7.526;2024-03-08T12:57:40;16.38;;;13.65;;
80621;SDS011;69980;51.914;7.526;2024-03-08T13:00:05;17.15;;;13.75;;
80621;SDS011;69980;51.914;7.526;2024-03-08T13:02:31;15.73;;;13.95;;
80621;SDS011;69980;51.914;7.526;2024-03-08T13:04:56;16.40;;;13.95;;
80621;SDS011;69980;51.914;7.526;2024-03-08T13:07:22;17.70;;;14.10;;
80621;SDS011;69980;51.914;7.526;2024-03-08T13:09:47;16.52;;;14.10;;
80621;SDS011;69980;51.914;7.526;2024-03-08T13:12:12;17.52;;;13.98;;
80621;SDS011;69980;51.914;7.526;2024-03-08T13:14:40;16.85;;;12.55;;
80621;SDS011;69980;51.914;7.526;2024-03-08T13:17:05;18.08;;;14.57;;
80621;SDS011;69980;51.914;7.526;2024-03-08T13:19:30;16.15;;;13.02;;
80621;SDS011;69980;51.914;7.526;2024-03-08T13:21:56;16.25;;;13.85;;
80621;SDS011;69980;51.914;7.526;2024-03-08T13:24:21;16.73;;;13.38;;
80621;SDS011;69980;51.914;7.526;2024-03-08T13:26:46;17.42;;;13.90;;
80621;SDS011;69980;51.914;7.526;2024-03-08T13:29:12;15.20;;;12.60;;
80621;SDS011;69980;51.914;7.526;2024-03-08T13:31:37;15.30;;;12.68;;
80621;SDS011;69980;51.914;7.526;2024-03-08T13:34:03;16.83;;;14.10;;
80621;SDS011;69980;51.914;7.526;2024-03-08T13:36:28;17.05;;;14.10;;
80621;SDS011;69980;51.914;7.526;2024-03-08T13:38:53;20.25;;;14.40;;
80621;SDS011;69980;51.914;7.526;2024-03-08T13:41:18;15.52;;;13.85;;
80621;SDS011;69980;51.914;7.526;2024-03-08T13:43:45;16.60;;;13.70;;
80621;SDS011;69980;51.914;7.526;2024-03-08T13:46:11;17.08;;;14.18;;
80621;SDS011;69980;51.914;7.526;2024-03-08T13:48:37;17.52;;;14.23;;
80621;SDS011;69980;51.914;7.526;2024-03-08T13:51:03;18.10;;;14.88;;
80621;SDS011;69980;51.914;7.526;2024-03-08T13:53:31;19.77;;;14.82;;
80621;SDS011;69980;51.914;7.526;2024-03-08T13:55:56;18.85;;;15.65;;
80621;SDS011;69980;51.914;7.526;2024-03-08T13:58:22;18.73;;;14.65;;
80621;SDS011;69980;51.914;7.526;2024-03-08T14:00:47;18.45;;;14.60;;
80621;SDS011;69980;51.914;7.526;2024-03-08T14:03:12;18.23;;;15.27;;
80621;SDS011;69980;51.914;7.526;2024-03-08T14:05:38;17.77;;;14.95;;
80621;SDS011;69980;51.914;7.526;2024-03-08T14:08:05;18.85;;;15.90;;
80621;SDS011;69980;51.914;7.526;2024-03-08T14:10:34;18.48;;;15.27;;
80621;SDS011;69980;51.914;7.526;2024-03-08T14:12:59;20.88;;;15.85;;
80621;SDS011;69980;51.914;7.526;2024-03-08T14:15:25;19.13;;;14.73;;
80621;SDS011;69980;51.914;7.526;2024-03-08T14:17:53;18.77;;;15.30;;
80621;SDS011;69980;51.914;7.526;2024-03-08T14:20:19;18.15;;;15.60;;
80621;SDS011;69980;51.914;7.526;2024-03-08T14:22:44;18.63;;;15.55;;
80621;SDS011;69980;51.914;7.526;2024-03-08T14:25:10;17.58;;;14.65;;
80621;SDS011;69980;51.914;7.526;2024-03-08T14:27:35;20.00;;;16.27;;